VILANOVA DE SAU (Osona)





Hora UTC 20:20
Temperatura 23.7 ºC
Humedad 75.5 %
Presión 1016.2 hPa
Pluja 0.0 mm
Velocidad viento 0.0 km/h
Dirección viento NNE
Radiación solar 0.1 W/m²

Datos diarios 2024-07-24



Hora UTC (invierno +1h; verano +2h)
Temperatura (ºC) Humedad (%) Presión (hPa) Velocidad viento (km/h) Precipitación (mm) Radiación solar (W/m²)
Hora UTC Aire Humedad Presión Vel. Dir. Vel. Max Dir. Intent. máx 5 min. Rad. Sol.
00:05 20.2 81.8 1019.9 0.0 NNE 0.0 N 0.0 0.2
00:10 20.1 82.5 1019.9 0.0 NNE 0.0 N 0.0 0.1
00:15 20.0 83.0 1019.9 0.0 NNE 0.0 N 0.0 0.1
00:20 19.9 82.9 1019.9 0.0 NNE 0.0 N 0.0 0.1
00:25 19.8 83.1 1019.8 0.0 NNE 0.0 N 0.0 0.1
00:30 19.8 83.6 1019.8 0.0 NNE 0.0 N 0.0 0.2
00:35 19.8 83.7 1019.7 0.0 NNE 0.0 N 0.0 0.2
00:40 19.8 83.5 1019.7 0.0 NNE 0.0 N 0.0 0.2
00:45 19.7 83.8 1019.6 0.0 NNE 0.0 N 0.0 0.2
00:50 19.6 84.1 1019.6 0.0 NNE 0.0 N 0.0 0.1
00:55 19.6 84.5 1019.5 0.0 NNE 0.0 N 0.0 0.2
01:00 19.6 84.8 1019.6 0.0 NNE 0.0 N 0.0 0.2
01:05 19.5 85.1 1019.6 0.0 NNE 0.0 N 0.0 0.1
01:10 19.5 85.1 1019.6 0.0 NNE 0.0 N 0.0 0.2
01:15 19.5 85.2 1019.6 0.0 NNE 0.0 N 0.0 0.2
01:20 19.5 85.3 1019.7 0.0 NNE 0.0 N 0.0 0.2
01:25 19.5 85.5 1019.6 0.0 NNE 0.0 N 0.0 0.2
01:30 19.5 85.4 1019.6 0.0 NNE 0.0 N 0.0 0.2
01:35 19.4 85.8 1019.6 0.0 NNE 0.0 N 0.0 0.2
01:40 19.3 86.6 1019.5 0.0 NNE 0.0 N 0.0 0.1
01:45 19.3 86.9 1019.5 0.0 NNE 0.0 N 0.0 0.1
01:50 19.3 87.3 1019.5 0.0 NNE 0.0 N 0.0 0.2
01:55 19.3 87.2 1019.5 0.0 NNE 0.0 N 0.0 0.2
02:00 19.3 87.1 1019.4 0.0 NNE 0.0 N 0.0 0.2
02:05 19.2 87.4 1019.4 0.0 NNE 0.0 N 0.0 0.1
02:10 19.1 87.6 1019.3 0.0 NNE 0.0 N 0.0 0.2
02:15 19.1 87.9 1019.2 0.0 NNE 0.0 N 0.0 0.2
02:20 19.0 88.3 1019.2 0.0 NNE 0.0 N 0.0 0.2
02:25 19.0 88.4 1019.2 0.0 NNE 0.0 N 0.0 0.2
02:30 18.9 88.8 1019.2 0.0 NNE 0.0 N 0.0 0.2
02:35 18.9 89.0 1019.2 0.0 NNE 0.0 N 0.0 0.2
02:40 18.9 88.9 1019.2 0.0 NNE 0.0 N 0.0 0.1
02:45 18.8 89.0 1019.2 0.0 NNE 0.0 N 0.0 0.1
02:50 18.7 89.5 1019.1 0.0 NNE 0.0 N 0.0 0.2
02:55 18.7 89.4 1019.1 0.0 NNE 0.0 N 0.0 0.2
03:00 18.8 89.2 1019.1 0.0 NNE 0.0 N 0.0 0.1
03:05 18.8 89.2 1019.0 0.0 NNE 0.0 N 0.0 0.2
03:10 18.7 89.2 1019.0 0.0 NNE 0.0 N 0.0 0.2
03:15 18.6 89.5 1019.0 0.0 NNE 0.0 N 0.0 0.1
03:20 18.5 89.9 1019.0 0.0 NNE 0.0 N 0.0 0.2
03:25 18.5 90.2 1019.0 0.0 NNE 0.0 N 0.0 0.2
03:30 18.5 90.2 1019.0 0.0 NNE 0.0 N 0.0 0.2
03:35 18.4 90.3 1019.0 0.0 NNE 0.0 N 0.0 0.2
03:40 18.4 90.5 1019.0 0.0 NNE 0.0 N 0.0 0.1
03:45 18.5 91.0 1019.0 0.0 NNE 0.0 N 0.0 0.2
03:50 18.5 90.6 1019.1 0.0 NNE 0.0 N 0.0 0.2
03:55 18.5 90.9 1019.1 0.0 NNE 0.0 N 0.0 0.2
04:00 18.5 90.4 1019.1 0.0 NNE 0.0 N 0.0 0.2
04:05 18.4 90.6 1019.1 0.0 NNE 0.0 N 0.0 0.2
04:10 18.3 90.7 1019.1 0.0 NNE 0.0 N 0.0 0.2
04:15 18.2 91.1 1019.1 0.0 NNE 0.0 N 0.0 0.2
04:20 18.1 91.2 1019.1 0.0 NNE 0.0 N 0.0 0.5
04:25 18.0 91.3 1019.1 0.0 NNE 0.0 N 0.0 1.1
04:30 18.0 91.6 1019.1 0.0 NNE 0.0 N 0.0 1.9
04:35 17.9 91.6 1019.1 0.0 NNE 0.0 N 0.0 3.2
04:40 17.9 92.0 1019.1 0.0 NNE 0.0 N 0.0 5.0
04:45 17.9 92.1 1019.1 0.0 NNE 0.0 N 0.0 7.0
04:50 17.8 92.2 1019.0 0.0 NNE 0.0 N 0.0 9.5
04:55 17.9 92.4 1019.0 0.0 NNE 0.0 N 0.0 18.0
05:00 17.9 92.2 1019.0 0.0 NNE 0.0 N 0.0 28.0
05:05 18.2 91.9 1019.0 0.0 NNE 0.0 N 0.0 31.8
05:10 18.4 91.2 1019.0 0.0 NNE 0.0 N 0.0 35.6
05:15 18.7 90.5 1019.0 0.0 NNE 0.0 N 0.0 49.0
05:20 18.9 89.9 1019.0 0.0 NNE 0.0 N 0.0 60.4
05:25 19.2 89.6 1019.0 0.0 NNE 0.0 N 0.0 73.2
05:30 19.4 88.7 1019.0 0.0 NNE 0.0 N 0.0 86.4
05:35 20.0 87.7 1019.1 0.0 NNE 0.0 N 0.0 90.0
05:40 20.6 85.1 1019.1 0.0 NNE 0.0 N 0.0 114.7
05:45 21.1 83.4 1019.1 0.0 NNE 0.0 N 0.0 127.8
05:50 21.9 80.0 1019.1 0.0 NNE 0.0 N 0.0 141.3
05:55 21.9 78.9 1019.1 0.0 NNE 0.0 N 0.0 154.6
06:00 22.0 79.3 1019.1 1.9 N 6.1 N 0.0 168.9
06:05 22.0 78.5 1019.1 3.2 N 6.1 N 0.0 182.3
06:10 21.8 79.3 1019.1 4.7 N 8.8 N 0.0 196.8
06:15 21.9 78.6 1019.1 4.3 N 6.1 N 0.0 211.7
06:20 21.8 78.9 1019.1 4.0 N 6.1 N 0.0 227.6
06:25 22.0 77.8 1019.1 0.6 N 6.1 N 0.0 242.6
06:30 21.9 77.5 1019.1 0.0 NNE 0.0 N 0.0 257.5
06:35 22.1 77.3 1019.2 0.0 NNE 0.0 N 0.0 272.4
06:40 23.1 75.9 1019.2 0.0 NNE 0.0 N 0.0 287.0
06:45 23.9 70.9 1019.1 0.0 N 3.4 N 0.0 301.7
06:50 24.0 70.2 1019.1 0.6 N 3.4 N 0.0 317.3
06:55 24.1 70.3 1019.1 0.0 NNE 0.0 N 0.0 331.9
07:00 24.5 69.2 1019.1 0.0 NNE 0.0 N 0.0 346.8
07:05 24.7 69.6 1019.1 0.0 NNE 0.0 N 0.0 361.2
07:10 24.8 68.3 1019.1 0.0 NNE 0.0 N 0.0 376.3
07:15 25.2 66.8 1019.1 1.7 N 6.1 N 0.0 391.5
07:20 25.5 65.9 1019.1 0.3 N 3.4 N 0.0 406.1
07:25 25.6 65.2 1019.1 0.4 N 6.1 N 0.0 421.4
07:30 25.7 64.1 1019.0 3.7 N 8.8 N 0.0 435.8
07:35 26.1 62.9 1019.0 0.6 N 6.1 N 0.0 450.0
07:40 26.2 62.0 1019.0 4.2 NNE 8.8 N 0.0 464.0
07:45 26.4 61.5 1019.0 3.6 NNE 8.8 N 0.0 477.1
07:50 26.5 59.7 1018.9 4.5 N 8.8 N 0.0 490.7
07:55 27.0 58.9 1018.9 4.0 N 8.8 N 0.0 503.6
08:00 27.2 57.2 1018.9 3.1 N 8.8 N 0.0 517.8
08:05 27.4 56.0 1018.9 1.7 N 8.8 N 0.0 530.9
08:10 27.6 55.4 1018.8 5.5 N 11.5 N 0.0 543.6
08:15 27.8 53.1 1018.8 5.2 N 11.5 N 0.0 556.2
08:20 27.7 54.6 1018.8 4.1 N 8.8 N 0.0 567.8
08:25 28.2 50.3 1018.7 3.5 N 11.5 N 0.0 580.7
08:30 29.0 46.5 1018.7 6.0 N 14.2 N 0.0 594.1
08:35 29.1 45.3 1018.7 5.6 N 14.2 N 0.0 605.7
08:40 29.1 44.6 1018.6 3.7 NNE 8.8 N 0.0 615.1
08:45 29.3 44.7 1018.6 3.2 NNE 8.8 N 0.0 629.3
08:50 29.5 44.2 1018.5 5.0 NNE 11.5 N 0.0 638.9
08:55 29.2 44.5 1018.5 6.7 N 16.9 N 0.0 650.5
09:00 29.4 43.2 1018.4 4.6 NNE 14.2 N 0.0 661.3
09:05 29.4 43.7 1018.4 4.0 N 14.2 N 0.0 671.3
09:10 29.8 42.8 1018.4 6.1 NNE 14.2 N 0.0 680.1
09:15 29.8 42.7 1018.4 6.6 N 16.9 N 0.0 690.3
09:20 29.5 43.1 1018.3 9.2 NNE 19.6 N 0.0 698.9
09:25 29.6 42.9 1018.3 7.2 N 19.6 N 0.0 707.6
09:30 29.9 42.5 1018.2 7.7 N 22.3 N 0.0 715.7
09:35 30.2 42.4 1018.2 4.2 NNE 14.2 N 0.0 726.1
09:40 30.4 40.9 1018.1 11.2 N 19.6 N 0.0 732.6
09:45 30.4 41.7 1018.1 6.6 N 16.9 N 0.0 741.8
09:50 30.9 41.1 1018.1 5.2 N 11.5 N 0.0 749.4
09:55 31.2 40.9 1018.0 5.7 N 14.2 N 0.0 758.0
10:00 31.7 39.4 1018.0 5.4 NNE 14.2 N 0.0 765.7
10:05 31.3 37.9 1018.0 8.2 N 19.6 N 0.0 771.5
10:10 30.8 38.7 1018.0 9.1 N 19.6 N 0.0 779.8
10:15 30.8 38.3 1018.0 6.0 N 16.9 N 0.0 786.1
10:20 31.1 37.8 1017.9 5.0 N 11.5 N 0.0 792.1
10:25 31.1 38.1 1017.9 5.4 N 11.5 N 0.0 795.8
10:30 31.4 37.1 1017.8 3.3 N 11.5 N 0.0 801.0
10:35 31.7 36.3 1017.7 6.0 NNE 14.2 N 0.0 807.0
10:40 31.7 36.2 1017.6 4.2 N 14.2 N 0.0 813.0
10:45 32.1 35.1 1017.6 7.9 N 19.6 N 0.0 819.0
10:50 31.8 35.8 1017.5 5.3 NNE 19.6 N 0.0 821.0
10:55 31.6 35.8 1017.5 5.8 N 14.2 N 0.0 824.0
11:00 31.9 35.3 1017.5 7.7 N 16.9 N 0.0 828.0
11:05 31.8 35.3 1017.4 9.7 NNE 19.6 N 0.0 830.0
11:10 31.9 34.9 1017.4 3.3 N 11.5 N 0.0 832.0
11:15 32.0 34.7 1017.3 5.0 N 11.5 N 0.0 833.0
11:20 32.4 34.5 1017.3 4.3 N 11.5 N 0.0 834.0
11:25 32.5 34.0 1017.2 4.2 N 11.5 N 0.0 839.0
11:30 32.9 33.7 1017.2 5.3 N 14.2 N 0.0 839.0
11:35 32.7 33.8 1017.2 5.8 N 11.5 N 0.0 838.0
11:40 33.1 33.1 1017.1 10.7 N 19.6 N 0.0 841.0
11:45 32.5 33.7 1017.0 11.6 N 27.7 N 0.0 841.0
11:50 32.5 33.6 1017.0 11.7 NNE 25.0 N 0.0 834.0
11:55 32.5 33.8 1016.9 7.2 NNE 14.2 N 0.0 833.0
12:00 32.9 34.0 1016.8 5.0 N 14.2 N 0.0 830.0
12:05 33.5 32.5 1016.7 5.0 N 11.5 N 0.0 826.0
12:10 33.8 32.4 1016.7 3.8 N 8.8 N 0.0 832.0
12:15 33.5 32.1 1016.6 5.2 N 11.5 N 0.0 830.0
12:20 33.3 32.4 1016.6 8.7 N 14.2 N 0.0 824.0
12:25 33.5 31.7 1016.5 8.2 N 19.6 N 0.0 821.0
12:30 34.1 30.5 1016.5 6.1 N 14.2 N 0.0 821.0
12:35 33.8 30.3 1016.5 8.1 N 16.9 N 0.0 821.0
12:40 33.6 33.5 1016.4 10.8 NNE 25.0 N 0.0 738.6
12:45 33.2 42.4 1016.4 11.4 NNE 25.0 N 0.0 806.0
12:50 32.7 43.4 1016.3 13.2 N 22.3 N 0.0 802.0
12:55 32.9 41.6 1016.4 10.8 NNE 19.6 N 0.0 783.3
13:00 32.6 44.5 1016.3 13.0 N 19.6 N 0.0 749.1
13:05 32.0 46.9 1016.3 13.0 N 27.7 N 0.0 470.5
13:10 31.7 48.4 1016.3 11.7 N 22.3 N 0.0 813.0
13:15 31.8 48.1 1016.3 11.0 NNE 19.6 N 0.0 489.1
13:20 31.4 49.9 1016.3 10.5 NNE 19.6 N 0.0 143.8
13:25 31.2 50.8 1016.3 10.5 N 19.6 N 0.0 779.7
13:30 31.3 51.0 1016.3 11.1 N 25.0 N 0.0 278.1
13:35 30.8 52.1 1016.3 9.9 N 19.6 N 0.0 131.1
13:40 30.4 53.5 1016.3 6.7 N 19.6 N 0.0 448.4
13:45 30.9 52.6 1016.3 8.9 N 16.9 N 0.0 553.3
13:50 31.1 51.5 1016.3 7.2 NNE 14.2 N 0.0 635.9
13:55 31.2 51.3 1016.2 9.6 N 16.9 N 0.0 173.3
14:00 30.7 52.0 1016.2 5.3 N 16.9 N 0.0 157.9
14:05 30.6 52.5 1016.2 6.8 N 19.6 N 0.0 736.1
14:10 31.5 50.5 1016.2 5.9 N 14.2 N 0.0 586.2
14:15 31.6 49.2 1016.2 7.6 NNE 16.9 N 0.0 453.2
14:20 31.0 50.1 1016.1 7.7 N 14.2 N 0.0 435.0
14:25 31.1 49.8 1016.0 6.4 N 14.2 N 0.0 553.3
14:30 31.1 48.6 1016.0 9.6 N 16.9 N 0.0 415.0
14:35 30.8 48.9 1016.0 7.5 N 16.9 N 0.0 302.6
14:40 30.7 48.2 1016.0 8.4 NNE 19.6 N 0.0 279.8
14:45 30.5 47.5 1016.0 8.9 N 22.3 N 0.0 333.0
14:50 30.3 46.8 1016.0 6.6 N 14.2 N 0.0 303.2
14:55 30.6 45.8 1016.0 8.2 N 16.9 N 0.0 675.9
15:00 31.1 44.0 1016.0 8.7 N 14.2 N 0.0 297.6
15:05 30.8 44.4 1016.0 6.8 N 14.2 N 0.0 247.8
15:10 30.8 44.4 1016.0 6.2 NNE 16.9 N 0.0 426.9
15:15 30.9 44.2 1015.9 6.2 NNE 14.2 N 0.0 429.4
15:20 31.0 44.3 1015.9 4.9 N 11.5 N 0.0 531.3
15:25 31.3 43.6 1015.8 8.7 NNE 16.9 N 0.0 538.0
15:30 31.5 44.2 1015.8 5.8 N 14.2 N 0.0 524.8
15:35 31.8 43.5 1015.7 4.5 N 11.5 N 0.0 529.3
15:40 31.8 43.5 1015.7 5.2 N 16.9 N 0.0 513.9
15:45 31.3 44.1 1015.6 6.3 N 14.2 N 0.0 501.6
15:50 31.4 45.3 1015.5 8.5 N 16.9 N 0.0 475.9
15:55 31.3 45.8 1015.5 10.8 N 19.6 N 0.0 441.8
16:00 31.1 46.3 1015.5 9.9 NNE 16.9 N 0.0 422.9
16:05 30.9 47.2 1015.5 11.8 NNE 22.3 N 0.0 405.9
16:10 30.6 48.7 1015.5 11.8 NNE 19.6 N 0.0 392.0
16:15 30.4 49.8 1015.5 11.8 N 19.6 N 0.0 385.2
16:20 30.4 50.0 1015.5 9.1 N 16.9 N 0.0 365.7
16:25 30.3 50.3 1015.5 10.8 N 16.9 N 0.0 339.9
16:30 30.2 51.4 1015.4 11.0 N 16.9 N 0.0 348.3
16:35 30.1 52.0 1015.4 9.2 N 16.9 N 0.0 327.1
16:40 30.1 52.2 1015.5 8.9 N 16.9 N 0.0 306.7
16:45 30.2 52.6 1015.4 6.8 NNE 16.9 N 0.0 298.9
16:50 30.3 52.1 1015.4 11.3 NNE 19.6 N 0.0 286.8
16:55 30.0 53.1 1015.4 11.0 N 19.6 N 0.0 269.2
17:00 29.8 53.9 1015.5 9.7 NNE 16.9 N 0.0 256.8
17:05 29.8 53.7 1015.4 8.4 N 14.2 N 0.0 218.5
17:10 29.7 53.7 1015.5 10.8 N 19.6 N 0.0 230.7
17:15 29.6 54.3 1015.5 9.7 N 19.6 N 0.0 217.9
17:20 29.5 54.3 1015.5 9.6 N 22.3 N 0.0 204.5
17:25 29.3 54.9 1015.6 10.0 N 19.6 N 0.0 191.4
17:30 29.2 55.1 1015.5 8.7 N 16.9 N 0.0 179.7
17:35 29.2 55.1 1015.6 8.2 NNE 16.9 N 0.0 165.4
17:40 29.2 54.6 1015.6 9.1 N 16.9 N 0.0 152.1
17:45 29.0 54.4 1015.6 10.4 N 19.6 N 0.0 140.2
17:50 28.9 55.0 1015.6 8.2 N 14.2 N 0.0 127.3
17:55 28.8 55.5 1015.6 8.1 N 14.2 N 0.0 115.9
18:00 28.6 55.8 1015.6 8.4 N 16.9 N 0.0 93.8
18:05 28.4 56.4 1015.6 6.5 N 14.2 N 0.0 43.0
18:10 28.3 57.4 1015.6 4.2 N 8.8 N 0.0 39.8
18:15 28.1 57.8 1015.6 6.1 NNE 11.5 N 0.0 37.2
18:20 28.0 58.3 1015.7 4.8 N 11.5 N 0.0 34.2
18:25 27.8 58.3 1015.7 5.7 N 11.5 N 0.0 31.5
18:30 27.8 58.4 1015.8 6.3 NNE 11.5 N 0.0 28.2
18:35 27.7 58.6 1015.8 4.7 N 8.8 N 0.0 26.1
18:40 27.6 59.3 1015.8 4.0 N 8.8 N 0.0 23.5
18:45 27.5 59.6 1015.8 4.6 N 8.8 N 0.0 20.7
18:50 27.3 60.0 1015.8 3.8 N 8.8 N 0.0 17.7
18:55 27.2 62.3 1015.9 0.5 N 3.4 N 0.0 14.9
19:00 26.8 63.7 1015.9 0.3 N 3.4 N 0.0 11.4
19:05 26.4 65.2 1015.9 1.2 N 6.1 N 0.0 8.2
19:10 26.1 66.3 1015.9 0.6 N 6.1 N 0.0 5.3
19:15 25.8 67.1 1015.9 0.6 N 6.1 N 0.0 3.5
19:20 25.5 68.4 1016.0 1.3 N 3.4 N 0.0 2.4
19:25 25.3 69.0 1016.0 0.0 NNE 0.0 N 0.0 1.5
19:30 25.1 69.6 1016.0 0.0 NNE 0.0 N 0.0 0.9
19:35 24.9 70.4 1016.0 0.0 NNE 0.0 N 0.0 0.4
19:40 24.7 71.5 1016.1 0.0 NNE 0.0 N 0.0 0.3
19:45 24.5 71.9 1016.1 0.0 NNE 0.0 N 0.0 0.1
19:50 24.4 72.3 1016.1 0.0 NNE 0.0 N 0.0 0.2
19:55 24.3 72.8 1016.1 0.0 NNE 0.0 N 0.0 0.1
20:00 24.1 73.4 1016.2 0.0 NNE 0.0 N 0.0 0.2
20:05 24.1 73.6 1016.2 0.0 NNE 0.0 N 0.0 0.2
20:10 23.9 74.3 1016.2 0.0 NNE 0.0 N 0.0 0.2
20:15 23.8 75.1 1016.2 0.0 NNE 0.0 N 0.0 0.2
20:20 23.7 75.5 1016.2 0.0 NNE 0.0 N 0.0 0.1
Máxima 34.3 92.4 1019.9 13.2 N 27.7 N 0.0 841.0
Mínima 17.8 30.3 1015.4
Total 0.0